Swannanoa, New Zealand

7:38 PM NZDT on December 20, 2014 (GMT +1300)
Bishopdale | Change Station
CLOSE
Current Station
Personal Weather Station
Location: -CHCH, Canterbury
Elevation: 73 ft
Nearby Weather Stations

Elev 73 ft 43.49 °S, 172.58 °E | Updated 7 minutes ago

Clear
Clear
76.9 °F
Feels Like 78 °F
N
7.0
Wind Variable Wind from NNW
Gusts 16.0 mph

Today
High -- | Low -- °F
--% Chance of Precip.
Yesterday
High -- | Low -- °F
Precip. -- in
5:45 AM 9:09 PM
Waning Crescent, 4% visible
Pressure 29.59 in
Visibility 6.2 miles
Clouds
Heat Index 78 °F
Dew Point 53 °F
Humidity 43%
Rainfall 0.00 in
Snow Depth Not available.
UV 0.0 out of 12
Pollen Not available.
Air Quality Not available.
Flu Activity Not available.
METAR NZCH 200630Z AUTO 33012KT 9999 NCD 26/10 Q1002 NOSIG

More Conditions Fewer Conditions

Pressure 29.59 in
Visibility 6.2 miles
Clouds
Heat Index 78 °F
Dew Point 53 °F
Humidity 43%
Rainfall 0.00 in
Snow Depth Not available.
UV 0.0 out of 12
Pollen Not available.
Air Quality Not available.
Flu Activity Not available.
METAR NZCH 200630Z AUTO 33012KT 9999 NCD 26/10 Q1002 NOSIG

More Conditions Fewer Conditions

10-Day Weather Forecast

Almanac

Astronomy

Dec. 20, 2014 Rise Set
Actual Time
Civil Twilight
Nautical Twilight
Astronomical Twilight
Moon
Length of Visible Light
Length of Day
Tomorrow will be .
, % of the Moon is Illuminated

Today's Extremes

Country Highs Country Lows

Community

WunderPhotos

Upload Photos

1,779,145 photos uploaded!

WunderBlogs® & News

Nearby

Air Quality

  Air Quality AQ Index Pollutant
Not available.

Snow Depth

Station Depth Elevation

Earthquake Activity

City Distance Mag. Time & Date
Minimum magnitude displayed is 2.5.

Coastal Water Temperatures

Place Temperature

Nearby Weather Stations